Time;durP1;ratioP1;P1;durP2;ratioP2;P2;SDS_P1;SDS_P2;PMS_P1;PMS_P2;Temp;Humidity;BMP_temperature;BMP_pressure;BME280_temperature;BME280_humidity;BME280_pressure;Samples;Min_cycle;Max_cycle;Signal;HPM_P1;HPM_P2
2023/04/22 00:01:23;;;;;;;2.35;2.15;;;10.90;99.90;;;;;;5000662;28;20205;-72
2023/04/22 00:03:50;;;;;;;2.40;2.30;;;10.90;99.90;;;;;;4984031;28;20220;-72
2023/04/22 00:06:18;;;;;;;2.40;2.20;;;10.90;99.90;;;;;;4997419;28;20294;-72
2023/04/22 00:08:46;;;;;;;2.58;2.40;;;10.90;99.90;;;;;;4998731;28;20288;-72
2023/04/22 00:11:14;;;;;;;2.28;2.08;;;10.90;99.90;;;;;;4995548;28;20205;-71
2023/04/22 00:13:41;;;;;;;2.08;1.98;;;10.90;99.90;;;;;;4999100;28;20224;-71
2023/04/22 00:16:08;;;;;;;2.55;2.40;;;10.80;99.90;;;;;;4998551;28;20233;-71
2023/04/22 00:18:35;;;;;;;2.25;2.15;;;10.80;99.90;;;;;;5005240;28;20882;-72
2023/04/22 00:21:02;;;;;;;2.25;2.15;;;10.70;99.90;;;;;;4998764;28;20201;-72
2023/04/22 00:23:29;;;;;;;2.42;2.33;;;10.70;99.90;;;;;;4998426;28;20316;-72
2023/04/22 00:25:58;;;;;;;2.25;2.15;;;10.60;99.90;;;;;;4999906;28;20204;-72
2023/04/22 00:28:25;;;;;;;2.65;2.45;;;10.60;99.90;;;;;;4998757;28;20231;-72
2023/04/22 00:30:52;;;;;;;2.28;2.17;;;10.60;99.90;;;;;;4998239;28;20201;-72
2023/04/22 00:33:20;;;;;;;2.30;2.20;;;10.60;99.90;;;;;;5003371;28;20224;-71
2023/04/22 00:35:47;;;;;;;2.28;2.17;;;10.50;99.90;;;;;;5001805;28;20891;-72
2023/04/22 00:38:14;;;;;;;2.35;2.25;;;10.50;99.90;;;;;;4999529;28;20295;-71
2023/04/22 00:40:41;;;;;;;2.28;2.17;;;10.50;99.90;;;;;;5001862;28;20196;-72
2023/04/22 00:43:11;;;;;;;2.30;2.20;;;10.50;99.90;;;;;;5000230;28;20224;-72
2023/04/22 00:45:39;;;;;;;2.10;2.00;;;10.50;99.90;;;;;;4986510;28;20208;-72
2023/04/22 00:48:07;;;;;;;2.33;2.22;;;10.50;99.90;;;;;;4998884;28;20284;-71
2023/04/22 00:50:34;;;;;;;2.20;2.10;;;10.50;99.90;;;;;;5006179;28;21334;-71
2023/04/22 00:53:01;;;;;;;1.90;1.80;;;10.50;99.90;;;;;;4999760;28;20249;-71
2023/04/22 00:55:28;;;;;;;2.20;2.10;;;10.50;99.90;;;;;;5002889;28;20721;-72
2023/04/22 00:57:58;;;;;;;1.85;1.75;;;10.50;99.90;;;;;;4999975;28;20311;-72
2023/04/22 01:00:28;;;;;;;2.15;2.05;;;10.50;99.90;;;;;;4995516;28;20275;-71
2023/04/22 01:02:56;;;;;;;2.40;2.30;;;10.50;99.90;;;;;;4993986;28;20757;-72
2023/04/22 01:05:24;;;;;;;2.17;2.08;;;10.50;99.90;;;;;;5000375;28;20273;-72
2023/04/22 01:07:51;;;;;;;2.28;2.17;;;10.50;99.90;;;;;;4997456;28;20233;-71
2023/04/22 01:10:19;;;;;;;2.08;1.98;;;10.50;99.90;;;;;;4999241;28;20307;-71
2023/04/22 01:12:46;;;;;;;2.28;2.17;;;10.50;99.90;;;;;;4997764;28;20286;-72
2023/04/22 01:15:14;;;;;;;2.13;2.03;;;10.50;99.90;;;;;;4999459;28;20898;-71
2023/04/22 01:17:43;;;;;;;2.20;2.10;;;10.50;99.90;;;;;;4999613;28;20219;-72
2023/04/22 01:20:11;;;;;;;2.17;1.95;;;10.50;99.90;;;;;;4998085;28;20303;-72
2023/04/22 01:22:44;;;;;;;2.03;1.92;;;10.50;99.90;;;;;;4983007;28;20274;-71
2023/04/22 01:25:13;;;;;;;2.30;2.20;;;10.40;99.90;;;;;;4996811;28;20709;-71
2023/04/22 01:27:41;;;;;;;2.00;1.90;;;10.50;99.90;;;;;;4995318;28;20251;-71
2023/04/22 01:30:10;;;;;;;2.08;1.88;;;10.50;99.90;;;;;;4997698;28;20670;-71
2023/04/22 01:32:39;;;;;;;2.13;2.03;;;10.40;99.90;;;;;;5002237;28;20225;-71
2023/04/22 01:35:07;;;;;;;2.40;2.30;;;10.40;99.90;;;;;;4999176;28;20292;-71
2023/04/22 01:37:35;;;;;;;2.33;2.22;;;10.40;99.90;;;;;;4999274;28;20232;-71
2023/04/22 01:40:04;;;;;;;2.08;1.98;;;10.40;99.90;;;;;;4996679;28;20288;-71
2023/04/22 01:42:33;;;;;;;2.50;2.40;;;10.30;99.90;;;;;;4996106;28;20221;-71
2023/04/22 01:45:00;;;;;;;2.55;2.42;;;10.30;99.90;;;;;;4996127;28;20219;-71
2023/04/22 01:47:30;;;;;;;2.00;1.90;;;10.30;99.90;;;;;;4997194;28;20689;-71
2023/04/22 01:49:57;;;;;;;2.20;2.10;;;10.30;99.90;;;;;;5000538;28;20235;-71
2023/04/22 01:52:24;;;;;;;2.25;2.15;;;10.30;99.90;;;;;;5000813;28;20307;-71
2023/04/22 01:54:53;;;;;;;2.10;2.00;;;10.20;99.90;;;;;;4998141;28;20685;-71
2023/04/22 01:57:20;;;;;;;2.25;2.15;;;10.20;99.90;;;;;;4996448;28;20296;-71
2023/04/22 01:59:48;;;;;;;2.40;2.30;;;10.20;99.90;;;;;;5000647;28;20291;-72
2023/04/22 02:02:15;;;;;;;2.22;2.13;;;10.20;99.90;;;;;;4985827;28;20219;-71
2023/04/22 02:04:42;;;;;;;2.58;2.40;;;10.20;99.90;;;;;;5001377;28;20243;-72
2023/04/22 02:07:10;;;;;;;2.08;1.98;;;10.20;99.90;;;;;;4999903;28;20236;-72
2023/04/22 02:09:37;;;;;;;2.00;1.90;;;10.20;99.90;;;;;;4995402;28;20224;-72
2023/04/22 02:12:04;;;;;;;2.28;2.17;;;10.20;99.90;;;;;;5002798;28;20904;-72
2023/04/22 02:14:31;;;;;;;2.33;2.22;;;10.30;99.90;;;;;;4995977;28;20201;-72
2023/04/22 02:17:01;;;;;;;2.55;2.35;;;10.30;99.90;;;;;;5002262;28;20254;-72
2023/04/22 02:19:28;;;;;;;2.70;2.50;;;10.30;99.90;;;;;;4996130;28;20236;-72
2023/04/22 02:21:55;;;;;;;2.25;2.15;;;10.20;99.90;;;;;;4977455;28;20233;-72
2023/04/22 02:24:22;;;;;;;2.30;2.20;;;10.20;99.90;;;;;;5000498;28;20220;-71
2023/04/22 02:26:49;;;;;;;2.60;2.50;;;10.20;99.90;;;;;;4979074;28;20205;-72
2023/04/22 02:29:16;;;;;;;2.40;2.30;;;10.10;99.90;;;;;;4999473;28;20734;-72
2023/04/22 02:31:43;;;;;;;2.72;2.53;;;10.10;99.90;;;;;;4998900;28;20201;-72
2023/04/22 02:34:12;;;;;;;2.78;2.58;;;10.10;99.90;;;;;;4997171;28;20224;-72
2023/04/22 02:36:39;;;;;;;2.70;2.50;;;10.10;99.90;;;;;;5001554;28;20691;-72
2023/04/22 02:39:06;;;;;;;2.35;2.25;;;10.10;99.90;;;;;;4995895;28;20220;-72
2023/04/22 02:41:33;;;;;;;2.15;2.05;;;10.10;99.90;;;;;;5000754;28;20259;-72
2023/04/22 02:44:00;;;;;;;2.33;2.22;;;10.10;99.90;;;;;;5001452;28;20252;-72
2023/04/22 02:46:27;;;;;;;2.33;2.22;;;10.10;99.90;;;;;;5000942;28;20613;-72
2023/04/22 02:48:54;;;;;;;2.50;2.30;;;10.10;99.90;;;;;;4999418;28;20292;-72
2023/04/22 02:51:23;;;;;;;2.40;2.30;;;10.00;99.90;;;;;;5003509;28;20533;-71
2023/04/22 02:53:50;;;;;;;2.40;2.30;;;10.00;99.90;;;;;;5010861;28;20216;-71
2023/04/22 02:56:17;;;;;;;2.33;2.22;;;10.00;99.90;;;;;;5002422;28;20201;-71
2023/04/22 02:58:44;;;;;;;2.30;2.15;;;10.00;99.90;;;;;;4997348;28;20755;-72
2023/04/22 03:01:12;;;;;;;2.35;2.20;;;10.00;99.90;;;;;;4999384;28;20826;-72
2023/04/22 03:03:39;;;;;;;2.53;2.42;;;10.00;99.90;;;;;;5000316;28;20256;-72
2023/04/22 03:06:06;;;;;;;2.10;2.00;;;10.10;99.90;;;;;;5000063;28;20903;-72
2023/04/22 03:08:35;;;;;;;2.40;2.30;;;10.00;99.90;;;;;;5000745;28;20302;-72
2023/04/22 03:11:02;;;;;;;2.38;2.25;;;10.00;99.90;;;;;;5000718;28;20565;-72
2023/04/22 03:13:29;;;;;;;2.83;2.25;;;10.00;99.90;;;;;;5000188;28;20232;-72
2023/04/22 03:15:56;;;;;;;2.20;2.10;;;9.90;99.90;;;;;;4997412;28;20236;-71
2023/04/22 03:18:23;;;;;;;2.22;2.10;;;9.90;99.90;;;;;;5006294;28;20851;-71
2023/04/22 03:20:51;;;;;;;2.80;2.60;;;9.90;99.90;;;;;;5003799;28;20267;-71
2023/04/22 03:23:17;;;;;;;2.40;2.30;;;9.90;99.90;;;;;;4996140;28;20303;-71
2023/04/22 03:25:47;;;;;;;2.30;2.20;;;9.90;99.90;;;;;;4999985;28;20316;-71
2023/04/22 03:28:14;;;;;;;2.17;2.08;;;9.90;99.90;;;;;;4980549;28;20201;-71
2023/04/22 03:30:41;;;;;;;2.33;2.22;;;9.90;99.90;;;;;;5003389;28;20228;-71
2023/04/22 03:33:08;;;;;;;1.88;1.77;;;9.80;99.90;;;;;;4997090;28;20259;-71
2023/04/22 03:35:35;;;;;;;2.40;2.30;;;9.80;99.90;;;;;;5000284;28;20319;-71
2023/04/22 03:38:02;;;;;;;2.15;2.05;;;9.80;99.90;;;;;;4999619;28;20308;-71
2023/04/22 03:40:29;;;;;;;2.45;2.25;;;9.80;99.90;;;;;;4998993;28;20236;-71
2023/04/22 03:42:58;;;;;;;2.38;2.28;;;9.80;99.90;;;;;;4996516;28;20212;-71
2023/04/22 03:45:26;;;;;;;2.47;2.10;;;9.80;99.90;;;;;;5002754;28;20303;-70
2023/04/22 03:47:54;;;;;;;2.30;2.20;;;9.80;99.90;;;;;;5003580;28;20255;-71
2023/04/22 03:50:21;;;;;;;2.88;2.67;;;9.80;99.90;;;;;;5000809;28;20918;-71
2023/04/22 03:52:48;;;;;;;2.30;2.20;;;9.80;99.90;;;;;;4996350;28;20307;-71
2023/04/22 03:55:15;;;;;;;2.42;2.33;;;9.70;99.90;;;;;;4998738;28;20285;-71
2023/04/22 03:57:42;;;;;;;2.05;1.95;;;9.80;99.90;;;;;;4985848;28;20200;-71
2023/04/22 04:00:12;;;;;;;2.45;2.35;;;9.80;99.90;;;;;;4980878;28;21167;-71
2023/04/22 04:02:40;;;;;;;2.30;2.20;;;9.80;99.90;;;;;;4967483;28;20232;-70
2023/04/22 04:05:09;;;;;;;2.50;2.40;;;9.80;99.90;;;;;;5001886;28;20370;-71
2023/04/22 04:07:37;;;;;;;2.50;2.40;;;9.80;99.90;;;;;;4999622;28;20583;-71
2023/04/22 04:10:04;;;;;;;2.33;2.22;;;9.80;99.90;;;;;;5002133;28;20749;-72
2023/04/22 04:12:31;;;;;;;2.65;2.55;;;9.70;99.90;;;;;;4987018;28;20224;-71
2023/04/22 04:14:58;;;;;;;2.30;2.20;;;9.70;99.90;;;;;;4996272;28;20623;-72
2023/04/22 04:17:27;;;;;;;2.72;2.22;;;9.70;99.90;;;;;;5002743;28;20228;-72
2023/04/22 04:19:55;;;;;;;2.10;2.00;;;9.70;99.90;;;;;;4996661;28;20208;-72
2023/04/22 04:22:23;;;;;;;2.55;2.45;;;9.70;99.90;;;;;;4984265;28;20226;-72
2023/04/22 04:24:51;;;;;;;2.35;2.25;;;9.80;99.90;;;;;;4996648;28;20595;-72
2023/04/22 04:27:18;;;;;;;1.98;1.88;;;9.80;99.90;;;;;;4999363;28;20670;-72
2023/04/22 04:29:46;;;;;;;2.53;2.42;;;9.80;99.90;;;;;;5000318;28;20299;-72
2023/04/22 04:32:13;;;;;;;2.20;2.10;;;9.80;99.90;;;;;;4995886;28;20217;-71
2023/04/22 04:34:42;;;;;;;2.67;2.47;;;9.80;99.90;;;;;;5001728;28;20788;-72
2023/04/22 04:37:10;;;;;;;2.47;2.38;;;9.80;99.90;;;;;;5002948;28;20200;-72
2023/04/22 04:39:37;;;;;;;2.63;2.50;;;9.80;99.90;;;;;;4982773;28;20232;-72
2023/04/22 04:42:04;;;;;;;2.30;2.13;;;9.70;99.90;;;;;;4998026;28;20308;-71
2023/04/22 04:44:32;;;;;;;2.40;2.20;;;9.70;99.90;;;;;;5000469;28;20334;-71
2023/04/22 04:46:59;;;;;;;2.65;2.45;;;9.70;99.90;;;;;;5000580;28;20232;-71
2023/04/22 04:49:29;;;;;;;2.72;2.63;;;9.70;99.90;;;;;;4997178;28;20936;-71
2023/04/22 04:51:58;;;;;;;2.13;2.03;;;9.80;99.90;;;;;;4998544;28;20224;-72
2023/04/22 04:54:25;;;;;;;2.30;2.20;;;9.80;99.90;;;;;;5000160;28;20204;-72
2023/04/22 04:56:52;;;;;;;2.60;2.40;;;9.80;99.90;;;;;;4997297;28;20290;-72
2023/04/22 04:59:19;;;;;;;2.20;2.10;;;9.80;99.90;;;;;;4997583;28;20283;-72
2023/04/22 05:01:46;;;;;;;2.28;2.17;;;9.80;99.90;;;;;;4982492;28;20204;-72
2023/04/22 05:04:14;;;;;;;2.38;2.28;;;9.90;99.90;;;;;;4993876;28;20204;-72
2023/04/22 05:06:41;;;;;;;2.90;2.70;;;9.90;99.90;;;;;;4983478;28;20308;-72
2023/04/22 05:09:10;;;;;;;2.40;2.20;;;10.00;99.90;;;;;;4995137;28;20288;-72
2023/04/22 05:11:37;;;;;;;2.53;2.42;;;10.00;99.90;;;;;;4982339;28;20219;-72
2023/04/22 05:14:04;;;;;;;2.83;2.63;;;10.20;99.90;;;;;;4997211;28;20204;-72
2023/04/22 05:16:31;;;;;;;2.05;1.95;;;10.40;99.90;;;;;;4996446;28;20292;-72
2023/04/22 05:18:59;;;;;;;2.42;2.33;;;10.60;99.90;;;;;;4998778;28;20236;-72
2023/04/22 05:21:27;;;;;;;1.88;1.77;;;10.90;99.90;;;;;;4995058;28;20745;-72
2023/04/22 05:23:54;;;;;;;2.30;2.20;;;11.10;99.90;;;;;;4996450;28;20271;-71
2023/04/22 05:26:23;;;;;;;2.20;2.10;;;11.30;99.90;;;;;;4996453;28;20276;-72
2023/04/22 05:28:50;;;;;;;2.58;2.40;;;11.40;99.90;;;;;;4984642;28;20292;-72
2023/04/22 05:31:17;;;;;;;2.30;2.20;;;11.40;99.90;;;;;;4986108;28;20288;-72
2023/04/22 05:33:44;;;;;;;2.40;2.30;;;11.40;99.90;;;;;;4982673;28;20303;-72
2023/04/22 05:36:11;;;;;;;2.53;2.40;;;11.40;99.90;;;;;;4979346;28;20693;-72
2023/04/22 05:38:38;;;;;;;2.40;2.25;;;11.40;99.90;;;;;;4996069;28;20300;-72
2023/04/22 05:41:06;;;;;;;2.47;2.28;;;11.40;99.90;;;;;;4981034;28;20205;-72
2023/04/22 05:43:34;;;;;;;2.17;2.05;;;11.40;99.90;;;;;;4999826;28;20667;-72
2023/04/22 05:46:01;;;;;;;2.60;2.50;;;11.30;99.90;;;;;;4982878;28;20298;-72
2023/04/22 05:48:29;;;;;;;2.58;2.38;;;11.30;99.90;;;;;;4985359;28;20204;-73
2023/04/22 05:50:55;;;;;;;2.42;2.33;;;11.30;99.90;;;;;;4985030;28;20800;-72
2023/04/22 05:53:22;;;;;;;2.50;2.40;;;11.40;99.90;;;;;;4998467;28;20252;-71
2023/04/22 05:55:50;;;;;;;2.63;2.50;;;11.40;99.90;;;;;;4992953;28;20290;-71
2023/04/22 05:58:17;;;;;;;2.40;2.30;;;11.40;99.90;;;;;;4998445;28;20545;-71
2023/04/22 06:00:46;;;;;;;2.90;2.70;;;11.40;99.90;;;;;;4999612;28;20646;-71
2023/04/22 06:03:13;;;;;;;2.45;2.35;;;11.40;99.90;;;;;;4980481;28;20223;-72
2023/04/22 06:05:41;;;;;;;3.05;2.85;;;11.50;99.90;;;;;;4999146;28;20307;-71
2023/04/22 06:08:08;;;;;;;2.30;2.20;;;11.60;99.90;;;;;;4993193;28;20197;-72
2023/04/22 06:10:35;;;;;;;2.55;2.45;;;11.70;99.90;;;;;;4998918;28;20307;-72
2023/04/22 06:13:02;;;;;;;2.80;2.60;;;11.80;99.90;;;;;;4997713;28;20285;-73
2023/04/22 06:15:31;;;;;;;3.05;2.85;;;11.80;99.90;;;;;;4981402;28;20672;-73
2023/04/22 06:17:59;;;;;;;2.83;2.63;;;12.00;99.90;;;;;;4981444;28;20615;-71
2023/04/22 06:20:26;;;;;;;3.10;2.90;;;12.10;99.90;;;;;;4993594;28;20283;-72
2023/04/22 06:22:53;;;;;;;2.92;2.72;;;12.10;99.90;;;;;;4994272;28;20794;-72
2023/04/22 06:25:20;;;;;;;3.08;2.88;;;12.20;99.90;;;;;;4991637;28;20286;-72
2023/04/22 06:27:48;;;;;;;2.85;2.63;;;12.20;99.90;;;;;;4996901;28;20271;-72
2023/04/22 06:30:15;;;;;;;3.00;2.80;;;12.30;99.90;;;;;;4994563;28;20200;-72
2023/04/22 06:32:42;;;;;;;2.85;2.65;;;12.40;99.90;;;;;;4998309;28;20319;-72
2023/04/22 06:35:11;;;;;;;2.83;2.63;;;12.60;99.90;;;;;;4997811;28;20225;-72
2023/04/22 06:37:38;;;;;;;2.78;2.60;;;12.90;99.90;;;;;;4996705;28;20263;-72
2023/04/22 06:40:06;;;;;;;2.90;2.70;;;13.10;99.90;;;;;;4997891;28;20220;-72
2023/04/22 06:42:33;;;;;;;2.90;2.70;;;13.40;99.90;;;;;;4999301;28;20290;-72
2023/04/22 06:45:01;;;;;;;2.58;2.45;;;13.70;99.90;;;;;;5002494;28;20431;-73
2023/04/22 06:47:28;;;;;;;2.58;2.47;;;14.00;99.90;;;;;;4999242;28;20879;-73
2023/04/22 06:49:55;;;;;;;3.25;3.05;;;14.20;99.90;;;;;;5005181;28;20236;-73
2023/04/22 06:52:23;;;;;;;3.33;2.83;;;14.10;99.90;;;;;;4998377;28;20252;-71
2023/04/22 06:54:50;;;;;;;3.33;3.00;;;14.00;99.90;;;;;;4992791;28;20292;-73
2023/04/22 06:57:18;;;;;;;3.17;2.88;;;14.00;99.90;;;;;;4993683;28;20289;-73
2023/04/22 06:59:44;;;;;;;3.60;3.30;;;14.00;99.90;;;;;;4994077;28;20209;-73
2023/04/22 07:02:12;;;;;;;3.95;2.80;;;13.90;99.90;;;;;;4996515;28;20318;-72
2023/04/22 07:04:39;;;;;;;3.05;2.78;;;13.90;99.90;;;;;;4978259;28;20199;-72
2023/04/22 07:07:06;;;;;;;3.60;2.65;;;14.30;99.90;;;;;;4964135;28;20221;-73
2023/04/22 07:09:35;;;;;;;3.10;2.50;;;14.60;99.90;;;;;;4996507;28;20200;-73
2023/04/22 07:12:03;;;;;;;2.85;2.65;;;14.60;99.90;;;;;;4995048;28;20216;-73
2023/04/22 07:14:30;;;;;;;2.60;2.40;;;14.60;99.90;;;;;;4980805;28;20850;-72
2023/04/22 07:16:57;;;;;;;2.67;2.45;;;14.70;99.90;;;;;;4994062;28;20624;-73
2023/04/22 07:19:26;;;;;;;2.35;2.25;;;15.00;99.90;;;;;;4993523;28;20207;-73
2023/04/22 07:21:53;;;;;;;2.78;2.58;;;14.90;99.90;;;;;;4980532;28;20207;-73
2023/04/22 07:24:20;;;;;;;2.28;2.17;;;14.80;99.90;;;;;;4996510;28;20528;-73
2023/04/22 07:26:49;;;;;;;2.97;2.63;;;14.80;99.90;;;;;;5000419;28;20303;-73
2023/04/22 07:29:16;;;;;;;2.67;2.20;;;14.80;99.90;;;;;;4997748;28;20295;-73
2023/04/22 07:31:43;;;;;;;2.25;2.15;;;14.70;99.90;;;;;;5004128;28;20295;-72
2023/04/22 07:34:10;;;;;;;2.80;2.60;;;14.80;99.90;;;;;;4998265;28;20200;-73
2023/04/22 07:36:38;;;;;;;2.58;2.17;;;15.10;99.90;;;;;;4998755;28;20299;-72
2023/04/22 07:39:05;;;;;;;3.30;2.40;;;15.50;99.90;;;;;;4996466;28;20235;-73
2023/04/22 07:41:32;;;;;;;2.17;2.08;;;16.10;99.90;;;;;;5000928;28;20941;-73
2023/04/22 07:44:02;;;;;;;2.58;2.38;;;16.50;99.90;;;;;;4983202;28;20235;-73
2023/04/22 07:46:29;;;;;;;2.20;2.10;;;16.90;99.90;;;;;;5002318;28;20251;-73
2023/04/22 07:48:56;;;;;;;2.58;2.40;;;17.00;99.90;;;;;;4981949;28;20935;-73
2023/04/22 07:51:24;;;;;;;2.88;2.67;;;17.10;99.90;;;;;;4998967;28;20287;-73
2023/04/22 07:53:52;;;;;;;2.50;2.33;;;17.10;99.90;;;;;;5000400;28;20310;-73
2023/04/22 07:56:19;;;;;;;2.30;2.20;;;17.10;99.90;;;;;;4996563;28;20267;-74
2023/04/22 07:58:46;;;;;;;2.55;2.35;;;17.10;99.90;;;;;;4984060;28;20266;-74
2023/04/22 08:01:15;;;;;;;2.78;2.58;;;17.10;99.90;;;;;;4998322;28;20720;-73
2023/04/22 08:03:43;;;;;;;2.88;2.05;;;17.20;99.90;;;;;;4996289;28;20876;-74
2023/04/22 08:06:10;;;;;;;2.47;2.28;;;17.40;99.90;;;;;;4997699;28;20294;-74
2023/04/22 08:08:37;;;;;;;2.63;2.42;;;17.40;99.90;;;;;;4985788;28;20205;-74
2023/04/22 08:11:06;;;;;;;2.60;2.40;;;17.30;99.90;;;;;;5000746;28;20250;-74
2023/04/22 08:13:33;;;;;;;2.80;2.60;;;17.40;99.90;;;;;;4997617;28;20262;-74
2023/04/22 08:16:01;;;;;;;2.58;2.38;;;17.40;99.90;;;;;;4993821;28;20282;-74
2023/04/22 08:18:30;;;;;;;2.42;2.25;;;17.10;99.90;;;;;;4983313;28;20292;-74
2023/04/22 08:20:57;;;;;;;2.30;2.20;;;17.20;99.90;;;;;;4999867;28;20290;-74
2023/04/22 08:23:25;;;;;;;2.20;2.10;;;17.30;99.90;;;;;;4999326;28;20350;-74
2023/04/22 08:25:52;;;;;;;2.30;2.10;;;17.40;99.90;;;;;;4995818;28;20204;-74
2023/04/22 08:28:19;;;;;;;1.73;1.63;;;17.40;99.90;;;;;;4998670;28;20287;-74
2023/04/22 08:30:46;;;;;;;2.10;2.00;;;17.30;99.90;;;;;;4999418;28;20282;-74
2023/04/22 08:33:13;;;;;;;2.30;2.10;;;17.30;99.90;;;;;;4997039;28;20220;-74
2023/04/22 08:35:42;;;;;;;2.50;2.30;;;17.50;99.90;;;;;;4996709;28;20205;-74
2023/04/22 08:38:09;;;;;;;2.45;2.00;;;17.50;99.90;;;;;;4998232;28;20284;-74
2023/04/22 08:40:40;;;;;;;2.95;2.20;;;17.50;99.90;;;;;;4993970;28;20224;-73
2023/04/22 08:43:07;;;;;;;2.30;2.10;;;17.50;99.90;;;;;;4997876;28;20232;-73
2023/04/22 08:45:35;;;;;;;2.20;2.10;;;17.50;99.90;;;;;;4973673;28;20296;-74
2023/04/22 08:48:03;;;;;;;3.83;2.20;;;17.40;99.90;;;;;;4997884;28;20255;-73
2023/04/22 08:50:31;;;;;;;2.10;1.90;;;17.50;99.90;;;;;;4996504;28;20754;-73
2023/04/22 08:53:00;;;;;;;1.75;1.65;;;17.60;99.90;;;;;;4980457;28;20338;-75
2023/04/22 08:55:27;;;;;;;2.10;2.00;;;17.90;99.90;;;;;;4995658;28;20474;-75
2023/04/22 08:57:55;;;;;;;2.00;1.90;;;18.10;99.90;;;;;;4996386;28;20288;-75
2023/04/22 09:00:22;;;;;;;2.50;2.25;;;18.30;99.90;;;;;;4997837;28;20291;-76
2023/04/22 09:02:50;;;;;;;1.88;1.77;;;18.40;99.90;;;;;;4995242;28;20331;-73
2023/04/22 09:05:21;;;;;;;2.13;2.03;;;18.60;99.90;;;;;;4977991;28;20288;-73
2023/04/22 09:07:48;;;;;;;2.20;1.98;;;18.90;99.90;;;;;;4999165;28;20859;-72
2023/04/22 09:10:17;;;;;;;2.30;2.20;;;18.90;99.90;;;;;;4978070;28;20200;-71
2023/04/22 09:12:45;;;;;;;2.17;2.05;;;18.80;99.90;;;;;;4996708;28;20712;-71
2023/04/22 09:15:12;;;;;;;2.40;2.10;;;18.50;99.90;;;;;;4996005;28;20290;-71
2023/04/22 09:17:40;;;;;;;1.80;1.70;;;18.40;99.90;;;;;;4980601;28;20200;-71
2023/04/22 09:20:08;;;;;;;2.25;1.88;;;18.50;99.90;;;;;;4994674;28;20223;-71
2023/04/22 09:22:40;;;;;;;2.20;2.00;;;18.50;99.90;;;;;;4996905;28;20498;-73
2023/04/22 09:25:15;;;;;;;1.95;1.85;;;18.60;99.90;;;;;;4979936;28;20230;-76
2023/04/22 09:27:48;;;;;;;2.28;2.13;;;18.80;99.90;;;;;;4991351;28;20335;-75
2023/04/22 09:30:17;;;;;;;2.17;2.08;;;18.90;99.90;;;;;;4988889;28;20300;-75
2023/04/22 09:32:53;;;;;;;2.00;1.90;;;19.10;99.90;;;;;;4989527;28;20964;-73
2023/04/22 09:35:27;;;;;;;2.13;1.92;;;19.20;99.90;;;;;;4975569;28;20284;-73
2023/04/22 09:37:55;;;;;;;1.85;1.75;;;19.20;99.90;;;;;;4972337;28;20192;-73
2023/04/22 09:40:22;;;;;;;1.90;1.80;;;19.30;99.90;;;;;;4978059;28;20235;-73
2023/04/22 09:42:52;;;;;;;2.63;2.42;;;19.60;99.90;;;;;;4990997;28;20220;-73
2023/04/22 09:45:27;;;;;;;2.22;2.10;;;19.80;99.90;;;;;;4996795;28;20578;-73
2023/04/22 09:47:55;;;;;;;2.65;2.42;;;19.90;99.90;;;;;;4990164;28;20326;-73
2023/04/22 09:50:25;;;;;;;2.00;1.85;;;20.20;99.90;;;;;;4996153;28;20232;-73
2023/04/22 09:52:57;;;;;;;2.28;2.17;;;20.20;99.90;;;;;;4976939;28;20609;-73
2023/04/22 09:55:26;;;;;;;2.20;2.00;;;20.10;99.90;;;;;;4986889;28;20236;-73
2023/04/22 09:57:55;;;;;;;2.00;1.90;;;19.90;99.90;;;;;;4990698;28;20219;-73
2023/04/22 10:00:27;;;;;;;2.38;2.17;;;19.90;99.90;;;;;;4979269;28;20219;-73
2023/04/22 10:02:54;;;;;;;1.88;1.77;;;20.00;99.90;;;;;;4993953;28;20264;-73
2023/04/22 10:05:22;;;;;;;2.17;1.98;;;20.20;99.90;;;;;;4996453;28;20301;-73
2023/04/22 10:07:49;;;;;;;2.10;2.00;;;20.10;99.90;;;;;;4987491;28;20782;-73
2023/04/22 10:10:16;;;;;;;1.73;1.63;;;20.20;99.90;;;;;;4998390;28;20223;-73
2023/04/22 10:12:44;;;;;;;1.80;1.70;;;20.50;99.90;;;;;;4978363;28;20264;-73
2023/04/22 10:15:13;;;;;;;1.90;1.80;;;20.50;99.90;;;;;;4994452;28;20211;-73
2023/04/22 10:17:42;;;;;;;1.77;1.67;;;20.50;99.90;;;;;;4990574;28;20271;-74
2023/04/22 10:20:13;;;;;;;2.40;1.70;;;20.60;99.90;;;;;;4997018;28;20236;-73
2023/04/22 10:22:42;;;;;;;1.60;1.50;;;20.90;99.90;;;;;;4998768;28;20725;-73
2023/04/22 10:25:21;;;;;;;2.67;1.70;;;21.10;99.90;;;;;;4991827;28;20204;-73
2023/04/22 10:27:53;;;;;;;2.22;1.90;;;21.00;99.90;;;;;;4975694;28;20217;-73
2023/04/22 10:30:29;;;;;;;1.90;1.80;;;20.80;99.90;;;;;;4988294;28;20273;-73
2023/04/22 10:32:56;;;;;;;2.00;1.90;;;20.90;99.90;;;;;;4990005;28;20255;-74
2023/04/22 10:35:28;;;;;;;2.92;1.60;;;20.80;99.90;;;;;;4975133;28;20269;-73
2023/04/22 10:37:55;;;;;;;2.13;1.88;;;20.70;99.90;;;;;;4977551;28;20862;-73
2023/04/22 10:40:22;;;;;;;1.63;1.52;;;20.70;99.90;;;;;;4991926;28;20211;-73
2023/04/22 10:42:54;;;;;;;3.33;1.77;;;20.80;99.90;;;;;;4975105;28;20260;-73
2023/04/22 10:45:25;;;;;;;1.60;1.50;;;21.10;99.90;;;;;;4989295;28;20212;-73
2023/04/22 10:47:53;;;;;;;1.83;1.73;;;21.40;99.90;;;;;;4998785;28;20216;-73
2023/04/22 10:50:25;;;;;;;2.22;1.20;;;21.30;99.90;;;;;;4994640;28;20292;-73
2023/04/22 10:52:55;;;;;;;1.42;1.33;;;21.10;99.90;;;;;;4994983;28;20221;-73
2023/04/22 10:55:23;;;;;;;1.63;1.52;;;21.10;99.90;;;;;;4987836;28;20208;-73
2023/04/22 10:57:52;;;;;;;2.70;1.58;;;21.10;99.90;;;;;;4993169;28;20771;-73
2023/04/22 11:00:23;;;;;;;1.50;1.40;;;21.00;99.90;;;;;;4991958;28;20231;-73
2023/04/22 11:02:55;;;;;;;1.30;1.20;;;21.00;99.90;;;;;;4996998;28;20350;-73
2023/04/22 11:05:24;;;;;;;1.48;1.38;;;21.10;99.90;;;;;;4997214;28;20308;-73
2023/04/22 11:07:54;;;;;;;1.23;1.23;;;21.30;99.90;;;;;;4981556;28;20224;-73
2023/04/22 11:10:33;;;;;;;1.50;1.40;;;21.70;99.90;;;;;;4996926;28;20299;-73
2023/04/22 11:13:02;;;;;;;1.65;1.55;;;21.90;99.90;;;;;;4984294;28;20220;-73
2023/04/22 11:15:31;;;;;;;1.40;1.30;;;21.80;99.90;;;;;;5000522;28;20262;-73
2023/04/22 11:18:00;;;;;;;1.48;1.30;;;21.70;99.90;;;;;;4981920;28;20761;-73
2023/04/22 11:20:29;;;;;;;1.55;1.45;;;21.70;99.90;;;;;;4968875;28;20204;-74
2023/04/22 11:22:57;;;;;;;1.60;1.50;;;21.50;99.90;;;;;;4997503;28;20228;-72
2023/04/22 11:25:26;;;;;;;1.50;1.40;;;21.60;99.90;;;;;;4996193;28;20802;-72
2023/04/22 11:27:54;;;;;;;1.40;1.30;;;21.50;99.90;;;;;;4997281;28;20216;-71
2023/04/22 11:30:22;;;;;;;1.55;1.42;;;21.50;99.90;;;;;;4996704;28;20841;-71
2023/04/22 11:32:51;;;;;;;1.25;1.25;;;21.50;99.90;;;;;;4981668;28;20422;-75
2023/04/22 11:35:21;;;;;;;1.55;1.45;;;21.40;99.90;;;;;;4995942;28;20204;-75
2023/04/22 11:37:50;;;;;;;1.55;1.45;;;21.50;99.90;;;;;;4997498;28;20288;-75
2023/04/22 11:40:20;;;;;;;1.60;1.50;;;21.50;99.90;;;;;;4996065;28;20240;-74
2023/04/22 11:42:48;;;;;;;1.73;1.63;;;21.50;99.90;;;;;;5002346;28;20285;-75
2023/04/22 11:45:16;;;;;;;1.42;1.30;;;21.50;99.90;;;;;;4982307;28;20641;-74
2023/04/22 11:47:44;;;;;;;1.58;1.48;;;21.50;99.90;;;;;;4984134;28;20232;-75
2023/04/22 11:50:13;;;;;;;1.50;1.40;;;21.60;99.90;;;;;;4996772;28;20200;-75
2023/04/22 11:52:45;;;;;;;1.75;1.65;;;21.60;99.90;;;;;;4979532;28;20224;-75
2023/04/22 11:55:12;;;;;;;2.00;1.70;;;21.60;99.90;;;;;;4998377;28;20213;-74
2023/04/22 11:57:39;;;;;;;1.70;1.60;;;21.50;99.90;;;;;;4996390;28;20201;-75
2023/04/22 12:00:11;;;;;;;2.15;1.38;;;21.50;99.90;;;;;;4964515;28;20200;-74
2023/04/22 12:02:38;;;;;;;1.98;1.60;;;21.60;99.90;;;;;;4994705;28;20235;-74
2023/04/22 12:05:09;;;;;;;1.50;1.40;;;21.60;99.90;;;;;;4998796;28;20409;-74
2023/04/22 12:07:37;;;;;;;1.40;1.33;;;21.60;99.90;;;;;;4998507;28;20311;-75
2023/04/22 12:10:07;;;;;;;1.60;1.50;;;21.60;99.90;;;;;;4981678;28;20895;-76
2023/04/22 12:12:36;;;;;;;1.58;1.48;;;21.70;99.90;;;;;;4996416;28;20662;-74
2023/04/22 12:15:13;;;;;;;1.50;1.40;;;21.90;99.90;;;;;;4997711;28;20207;-69
2023/04/22 12:17:40;;;;;;;1.42;1.40;;;22.00;99.90;;;;;;4991830;28;20287;-74
2023/04/22 12:20:12;;;;;;;1.50;1.40;;;22.30;99.90;;;;;;4996238;28;20212;-74
2023/04/22 12:22:40;;;;;;;1.30;1.20;;;22.40;99.90;;;;;;4981316;28;20224;-77
2023/04/22 12:25:09;;;;;;;1.40;1.30;;;22.40;99.90;;;;;;4994429;28;20291;-75
2023/04/22 12:27:37;;;;;;;1.52;1.42;;;22.60;99.90;;;;;;4998195;28;20304;-75
2023/04/22 12:30:05;;;;;;;1.50;1.40;;;22.70;99.90;;;;;;4979358;28;20951;-74
2023/04/22 12:32:32;;;;;;;1.10;1.10;;;22.60;99.90;;;;;;4995337;28;20244;-75
2023/04/22 12:34:59;;;;;;;1.17;1.13;;;22.50;99.90;;;;;;4997152;28;20209;-74
2023/04/22 12:37:27;;;;;;;2.15;1.48;;;22.40;99.90;;;;;;4981176;28;20282;-74
2023/04/22 12:39:55;;;;;;;1.40;1.33;;;22.20;99.90;;;;;;4996265;28;20236;-75
2023/04/22 12:42:23;;;;;;;1.42;1.33;;;22.10;99.90;;;;;;4984624;28;20251;-74
2023/04/22 12:44:50;;;;;;;2.95;1.60;;;21.80;99.90;;;;;;5002930;28;20299;-75
2023/04/22 12:47:18;;;;;;;1.65;1.55;;;21.70;99.90;;;;;;4993301;28;20644;-75
2023/04/22 12:49:46;;;;;;;1.30;1.20;;;21.60;99.90;;;;;;4995715;28;20204;-75
2023/04/22 12:52:13;;;;;;;1.75;1.65;;;21.60;99.90;;;;;;4991957;28;20220;-75